sensor_id;sensor_type;location;lat;lon;timestamp;temperature;humidity
292;DHT22;23311;48.776;9.162;2023-06-24T00:01:44;17.50;94.10
292;DHT22;23311;48.776;9.162;2023-06-24T00:04:12;17.40;94.20
292;DHT22;23311;48.776;9.162;2023-06-24T00:06:41;17.30;94.50
292;DHT22;23311;48.776;9.162;2023-06-24T00:09:10;17.30;95.40
292;DHT22;23311;48.776;9.162;2023-06-24T00:11:38;17.30;95.50
292;DHT22;23311;48.776;9.162;2023-06-24T00:14:06;17.30;95.50
292;DHT22;23311;48.776;9.162;2023-06-24T00:16:35;17.30;95.50
292;DHT22;23311;48.776;9.162;2023-06-24T00:19:03;17.20;95.50
292;DHT22;23311;48.776;9.162;2023-06-24T00:21:32;17.10;95.50
292;DHT22;23311;48.776;9.162;2023-06-24T00:24:00;17.00;95.50
292;DHT22;23311;48.776;9.162;2023-06-24T00:26:31;17.30;95.50
292;DHT22;23311;48.776;9.162;2023-06-24T00:28:59;17.60;95.00
292;DHT22;23311;48.776;9.162;2023-06-24T00:31:27;17.60;94.80
292;DHT22;23311;48.776;9.162;2023-06-24T00:33:57;17.30;95.20
292;DHT22;23311;48.776;9.162;2023-06-24T00:36:25;17.10;95.50
292;DHT22;23311;48.776;9.162;2023-06-24T00:38:55;17.30;95.50
292;DHT22;23311;48.776;9.162;2023-06-24T00:41:23;17.10;95.50
292;DHT22;23311;48.776;9.162;2023-06-24T00:43:52;17.10;95.50
292;DHT22;23311;48.776;9.162;2023-06-24T00:46:20;17.00;95.50
292;DHT22;23311;48.776;9.162;2023-06-24T00:48:48;16.90;95.50
292;DHT22;23311;48.776;9.162;2023-06-24T00:51:18;16.80;95.50
292;DHT22;23311;48.776;9.162;2023-06-24T00:53:48;16.70;95.50
292;DHT22;23311;48.776;9.162;2023-06-24T00:56:16;16.50;95.50
292;DHT22;23311;48.776;9.162;2023-06-24T00:58:45;16.40;95.50
292;DHT22;23311;48.776;9.162;2023-06-24T01:01:17;16.30;95.50
292;DHT22;23311;48.776;9.162;2023-06-24T01:03:47;16.30;95.50
292;DHT22;23311;48.776;9.162;2023-06-24T01:06:15;16.30;95.50
292;DHT22;23311;48.776;9.162;2023-06-24T01:08:45;16.20;95.50
292;DHT22;23311;48.776;9.162;2023-06-24T01:11:18;16.20;95.50
292;DHT22;23311;48.776;9.162;2023-06-24T01:13:46;16.40;95.50
292;DHT22;23311;48.776;9.162;2023-06-24T01:16:26;16.40;95.50
292;DHT22;23311;48.776;9.162;2023-06-24T01:18:59;16.40;95.50
292;DHT22;23311;48.776;9.162;2023-06-24T01:21:38;16.40;95.50
292;DHT22;23311;48.776;9.162;2023-06-24T01:24:35;16.30;95.50
292;DHT22;23311;48.776;9.162;2023-06-24T01:27:45;16.30;95.50
292;DHT22;23311;48.776;9.162;2023-06-24T01:33:22;16.10;95.50
292;DHT22;23311;48.776;9.162;2023-06-24T01:35:54;16.00;95.50
292;DHT22;23311;48.776;9.162;2023-06-24T01:38:27;15.90;95.50
292;DHT22;23311;48.776;9.162;2023-06-24T01:41:01;15.90;95.50
292;DHT22;23311;48.776;9.162;2023-06-24T01:43:32;15.90;95.50
292;DHT22;23311;48.776;9.162;2023-06-24T01:46:03;15.90;95.50
292;DHT22;23311;48.776;9.162;2023-06-24T01:48:35;15.80;95.50
292;DHT22;23311;48.776;9.162;2023-06-24T01:51:08;15.80;95.50
292;DHT22;23311;48.776;9.162;2023-06-24T01:53:39;15.90;95.50
292;DHT22;23311;48.776;9.162;2023-06-24T01:56:12;16.20;95.50
292;DHT22;23311;48.776;9.162;2023-06-24T01:58:43;16.50;95.50
292;DHT22;23311;48.776;9.162;2023-06-24T02:01:12;16.50;95.50
292;DHT22;23311;48.776;9.162;2023-06-24T02:03:42;16.40;95.50
292;DHT22;23311;48.776;9.162;2023-06-24T02:06:11;16.40;95.50
292;DHT22;23311;48.776;9.162;2023-06-24T02:08:41;16.30;95.50
292;DHT22;23311;48.776;9.162;2023-06-24T02:11:11;16.20;95.50
292;DHT22;23311;48.776;9.162;2023-06-24T02:13:40;16.00;95.50
292;DHT22;23311;48.776;9.162;2023-06-24T02:16:10;16.40;95.50
292;DHT22;23311;48.776;9.162;2023-06-24T02:18:39;16.10;95.50
292;DHT22;23311;48.776;9.162;2023-06-24T02:21:11;15.90;95.50
292;DHT22;23311;48.776;9.162;2023-06-24T02:23:40;15.70;95.50
292;DHT22;23311;48.776;9.162;2023-06-24T02:26:10;15.70;95.50
292;DHT22;23311;48.776;9.162;2023-06-24T02:28:38;15.70;95.50
292;DHT22;23311;48.776;9.162;2023-06-24T02:31:09;15.70;95.50
292;DHT22;23311;48.776;9.162;2023-06-24T02:33:38;15.80;95.50
292;DHT22;23311;48.776;9.162;2023-06-24T02:36:07;15.80;95.50
292;DHT22;23311;48.776;9.162;2023-06-24T02:38:36;15.80;95.50
292;DHT22;23311;48.776;9.162;2023-06-24T02:41:04;15.90;95.50
292;DHT22;23311;48.776;9.162;2023-06-24T02:43:32;15.80;95.50
292;DHT22;23311;48.776;9.162;2023-06-24T02:46:03;15.80;95.50
292;DHT22;23311;48.776;9.162;2023-06-24T02:48:35;15.80;95.50
292;DHT22;23311;48.776;9.162;2023-06-24T02:51:05;15.80;95.50
292;DHT22;23311;48.776;9.162;2023-06-24T02:53:38;15.80;95.50
292;DHT22;23311;48.776;9.162;2023-06-24T02:56:08;15.70;95.50
292;DHT22;23311;48.776;9.162;2023-06-24T02:58:39;15.70;95.50
292;DHT22;23311;48.776;9.162;2023-06-24T03:01:08;15.60;95.50
292;DHT22;23311;48.776;9.162;2023-06-24T03:03:36;15.50;95.50
292;DHT22;23311;48.776;9.162;2023-06-24T03:06:04;15.60;95.50
292;DHT22;23311;48.776;9.162;2023-06-24T03:08:33;15.60;95.50
292;DHT22;23311;48.776;9.162;2023-06-24T03:11:03;15.50;95.50
292;DHT22;23311;48.776;9.162;2023-06-24T03:13:31;15.50;95.50
292;DHT22;23311;48.776;9.162;2023-06-24T03:15:59;15.60;95.50
292;DHT22;23311;48.776;9.162;2023-06-24T03:18:27;15.70;95.50
292;DHT22;23311;48.776;9.162;2023-06-24T03:20:55;15.80;95.50
292;DHT22;23311;48.776;9.162;2023-06-24T03:23:24;15.80;95.50
292;DHT22;23311;48.776;9.162;2023-06-24T03:25:52;15.80;95.50
292;DHT22;23311;48.776;9.162;2023-06-24T03:28:21;15.80;95.50
292;DHT22;23311;48.776;9.162;2023-06-24T03:30:49;15.70;95.50
292;DHT22;23311;48.776;9.162;2023-06-24T03:33:17;15.70;95.50
292;DHT22;23311;48.776;9.162;2023-06-24T03:35:45;15.70;95.50
292;DHT22;23311;48.776;9.162;2023-06-24T03:38:13;15.70;95.50
292;DHT22;23311;48.776;9.162;2023-06-24T03:40:42;15.70;95.50
292;DHT22;23311;48.776;9.162;2023-06-24T03:43:10;15.70;95.50
292;DHT22;23311;48.776;9.162;2023-06-24T03:45:40;15.70;95.50
292;DHT22;23311;48.776;9.162;2023-06-24T03:48:08;15.70;95.50
292;DHT22;23311;48.776;9.162;2023-06-24T03:50:36;15.60;95.50
292;DHT22;23311;48.776;9.162;2023-06-24T03:53:04;15.60;95.50
292;DHT22;23311;48.776;9.162;2023-06-24T03:55:32;15.80;95.50
292;DHT22;23311;48.776;9.162;2023-06-24T03:58:01;15.90;95.50
292;DHT22;23311;48.776;9.162;2023-06-24T04:00:29;16.00;95.50
292;DHT22;23311;48.776;9.162;2023-06-24T04:02:58;16.10;95.50
292;DHT22;23311;48.776;9.162;2023-06-24T04:05:28;16.30;95.50
292;DHT22;23311;48.776;9.162;2023-06-24T04:07:56;16.60;95.50
292;DHT22;23311;48.776;9.162;2023-06-24T04:10:24;16.90;95.50
292;DHT22;23311;48.776;9.162;2023-06-24T04:12:52;17.50;95.50
292;DHT22;23311;48.776;9.162;2023-06-24T04:15:20;18.20;95.50
292;DHT22;23311;48.776;9.162;2023-06-24T04:17:48;18.80;94.90
292;DHT22;23311;48.776;9.162;2023-06-24T04:20:18;19.30;92.90
292;DHT22;23311;48.776;9.162;2023-06-24T04:22:46;19.60;91.80
292;DHT22;23311;48.776;9.162;2023-06-24T04:25:14;19.70;91.40
292;DHT22;23311;48.776;9.162;2023-06-24T04:27:42;19.90;90.50
292;DHT22;23311;48.776;9.162;2023-06-24T04:30:11;20.00;90.20
292;DHT22;23311;48.776;9.162;2023-06-24T04:32:39;20.10;89.80
292;DHT22;23311;48.776;9.162;2023-06-24T04:35:08;20.30;89.50
292;DHT22;23311;48.776;9.162;2023-06-24T04:37:38;20.70;88.40
292;DHT22;23311;48.776;9.162;2023-06-24T04:40:06;21.10;87.50
292;DHT22;23311;48.776;9.162;2023-06-24T04:42:35;20.90;87.50
292;DHT22;23311;48.776;9.162;2023-06-24T04:45:03;20.70;87.90
292;DHT22;23311;48.776;9.162;2023-06-24T04:47:32;20.20;89.10
292;DHT22;23311;48.776;9.162;2023-06-24T04:50:00;19.90;90.10
292;DHT22;23311;48.776;9.162;2023-06-24T04:52:29;19.90;90.30
292;DHT22;23311;48.776;9.162;2023-06-24T04:54:58;19.80;90.60
292;DHT22;23311;48.776;9.162;2023-06-24T04:57:28;19.90;90.50
292;DHT22;23311;48.776;9.162;2023-06-24T04:59:57;20.00;90.20
292;DHT22;23311;48.776;9.162;2023-06-24T05:02:25;20.20;89.90
292;DHT22;23311;48.776;9.162;2023-06-24T05:04:54;20.30;89.80
292;DHT22;23311;48.776;9.162;2023-06-24T05:07:22;20.60;89.10
292;DHT22;23311;48.776;9.162;2023-06-24T05:09:50;20.70;88.70
292;DHT22;23311;48.776;9.162;2023-06-24T05:12:20;20.80;88.70
292;DHT22;23311;48.776;9.162;2023-06-24T05:14:50;20.40;89.10
292;DHT22;23311;48.776;9.162;2023-06-24T05:17:19;20.60;88.90
292;DHT22;23311;48.776;9.162;2023-06-24T05:19:48;20.60;88.70
292;DHT22;23311;48.776;9.162;2023-06-24T05:22:16;20.80;88.80
292;DHT22;23311;48.776;9.162;2023-06-24T05:24:44;21.40;87.40
292;DHT22;23311;48.776;9.162;2023-06-24T05:27:12;21.60;86.70
292;DHT22;23311;48.776;9.162;2023-06-24T05:29:42;21.70;86.30
292;DHT22;23311;48.776;9.162;2023-06-24T05:32:10;22.20;85.20
292;DHT22;23311;48.776;9.162;2023-06-24T05:34:38;22.50;84.20
292;DHT22;23311;48.776;9.162;2023-06-24T05:37:06;23.00;83.60
292;DHT22;23311;48.776;9.162;2023-06-24T05:39:34;23.90;81.30
292;DHT22;23311;48.776;9.162;2023-06-24T05:42:02;24.70;79.60
292;DHT22;23311;48.776;9.162;2023-06-24T05:44:31;25.50;77.60
292;DHT22;23311;48.776;9.162;2023-06-24T05:47:00;25.90;76.30
292;DHT22;23311;48.776;9.162;2023-06-24T05:49:28;26.10;75.30
292;DHT22;23311;48.776;9.162;2023-06-24T05:51:56;25.40;76.60
292;DHT22;23311;48.776;9.162;2023-06-24T05:54:25;25.30;76.70
292;DHT22;23311;48.776;9.162;2023-06-24T05:56:53;25.40;76.70
292;DHT22;23311;48.776;9.162;2023-06-24T05:59:21;25.90;75.60
292;DHT22;23311;48.776;9.162;2023-06-24T06:01:49;26.50;74.50
292;DHT22;23311;48.776;9.162;2023-06-24T06:04:18;26.80;73.40
292;DHT22;23311;48.776;9.162;2023-06-24T06:06:46;26.40;73.70
292;DHT22;23311;48.776;9.162;2023-06-24T06:09:14;26.60;73.70
292;DHT22;23311;48.776;9.162;2023-06-24T06:11:43;26.80;73.20
292;DHT22;23311;48.776;9.162;2023-06-24T06:14:11;27.40;72.20
292;DHT22;23311;48.776;9.162;2023-06-24T06:16:39;27.80;71.30
292;DHT22;23311;48.776;9.162;2023-06-24T06:19:07;27.60;70.90
292;DHT22;23311;48.776;9.162;2023-06-24T06:21:37;27.60;71.30
292;DHT22;23311;48.776;9.162;2023-06-24T06:24:06;28.10;69.90
292;DHT22;23311;48.776;9.162;2023-06-24T06:26:34;28.50;68.70
292;DHT22;23311;48.776;9.162;2023-06-24T06:29:02;28.40;68.60
292;DHT22;23311;48.776;9.162;2023-06-24T06:31:30;28.30;69.20
292;DHT22;23311;48.776;9.162;2023-06-24T06:33:58;28.60;68.10
292;DHT22;23311;48.776;9.162;2023-06-24T06:36:27;28.30;68.40
292;DHT22;23311;48.776;9.162;2023-06-24T06:38:56;28.40;68.00
292;DHT22;23311;48.776;9.162;2023-06-24T06:41:24;28.60;67.30
292;DHT22;23311;48.776;9.162;2023-06-24T06:43:53;28.80;67.00
292;DHT22;23311;48.776;9.162;2023-06-24T06:46:21;29.50;65.50
292;DHT22;23311;48.776;9.162;2023-06-24T06:48:49;29.60;64.70
292;DHT22;23311;48.776;9.162;2023-06-24T06:51:17;28.30;67.00
292;DHT22;23311;48.776;9.162;2023-06-24T06:53:47;29.20;65.80
292;DHT22;23311;48.776;9.162;2023-06-24T06:56:23;29.30;64.80
292;DHT22;23311;48.776;9.162;2023-06-24T06:58:52;29.40;64.60
292;DHT22;23311;48.776;9.162;2023-06-24T07:01:20;30.00;63.10
292;DHT22;23311;48.776;9.162;2023-06-24T07:03:49;29.40;63.70
292;DHT22;23311;48.776;9.162;2023-06-24T07:06:18;28.50;64.90
292;DHT22;23311;48.776;9.162;2023-06-24T07:08:46;28.80;64.70
292;DHT22;23311;48.776;9.162;2023-06-24T07:11:15;29.70;63.20
292;DHT22;23311;48.776;9.162;2023-06-24T07:13:44;30.00;62.50
292;DHT22;23311;48.776;9.162;2023-06-24T07:16:13;28.30;64.00
292;DHT22;23311;48.776;9.162;2023-06-24T07:18:41;28.20;65.70
292;DHT22;23311;48.776;9.162;2023-06-24T07:21:09;29.10;63.70
292;DHT22;23311;48.776;9.162;2023-06-24T07:23:37;28.50;63.90
292;DHT22;23311;48.776;9.162;2023-06-24T07:26:05;29.30;63.50
292;DHT22;23311;48.776;9.162;2023-06-24T07:28:33;29.30;62.90
292;DHT22;23311;48.776;9.162;2023-06-24T07:31:03;29.20;62.80
292;DHT22;23311;48.776;9.162;2023-06-24T07:33:31;29.70;62.00
292;DHT22;23311;48.776;9.162;2023-06-24T07:35:59;30.80;60.60
292;DHT22;23311;48.776;9.162;2023-06-24T07:38:28;29.90;61.60
292;DHT22;23311;48.776;9.162;2023-06-24T07:40:56;30.20;61.10
292;DHT22;23311;48.776;9.162;2023-06-24T07:43:24;28.00;64.70
292;DHT22;23311;48.776;9.162;2023-06-24T07:45:52;28.90;64.10
292;DHT22;23311;48.776;9.162;2023-06-24T07:48:22;30.70;61.30
292;DHT22;23311;48.776;9.162;2023-06-24T07:50:50;31.90;59.40
292;DHT22;23311;48.776;9.162;2023-06-24T07:53:18;32.00;58.60
292;DHT22;23311;48.776;9.162;2023-06-24T07:55:46;31.60;59.20
292;DHT22;23311;48.776;9.162;2023-06-24T07:58:14;31.80;58.70
292;DHT22;23311;48.776;9.162;2023-06-24T08:00:42;32.90;57.50
292;DHT22;23311;48.776;9.162;2023-06-24T08:03:11;33.40;56.60
292;DHT22;23311;48.776;9.162;2023-06-24T08:05:40;33.10;57.00
292;DHT22;23311;48.776;9.162;2023-06-24T08:08:08;32.60;57.80
292;DHT22;23311;48.776;9.162;2023-06-24T08:10:37;32.70;57.40
292;DHT22;23311;48.776;9.162;2023-06-24T08:13:05;32.70;58.00
292;DHT22;23311;48.776;9.162;2023-06-24T08:15:33;33.70;56.80
292;DHT22;23311;48.776;9.162;2023-06-24T08:18:01;34.30;55.90
292;DHT22;23311;48.776;9.162;2023-06-24T08:20:30;34.20;55.50
292;DHT22;23311;48.776;9.162;2023-06-24T08:22:59;34.30;55.60
292;DHT22;23311;48.776;9.162;2023-06-24T08:25:27;33.40;56.20
292;DHT22;23311;48.776;9.162;2023-06-24T08:27:55;32.00;57.80
292;DHT22;23311;48.776;9.162;2023-06-24T08:30:24;30.90;59.90
292;DHT22;23311;48.776;9.162;2023-06-24T08:32:52;31.90;59.00
292;DHT22;23311;48.776;9.162;2023-06-24T08:35:20;33.70;56.70
292;DHT22;23311;48.776;9.162;2023-06-24T08:37:49;33.80;55.90
292;DHT22;23311;48.776;9.162;2023-06-24T08:40:18;33.80;55.80
292;DHT22;23311;48.776;9.162;2023-06-24T08:42:46;33.50;56.00
292;DHT22;23311;48.776;9.162;2023-06-24T08:45:14;32.80;57.20
292;DHT22;23311;48.776;9.162;2023-06-24T08:47:43;33.50;56.00
292;DHT22;23311;48.776;9.162;2023-06-24T08:50:12;32.40;57.20
292;DHT22;23311;48.776;9.162;2023-06-24T08:52:43;31.30;58.20
292;DHT22;23311;48.776;9.162;2023-06-24T08:55:13;31.90;58.10
292;DHT22;23311;48.776;9.162;2023-06-24T08:57:45;32.10;57.30
292;DHT22;23311;48.776;9.162;2023-06-24T09:00:14;30.20;60.10
292;DHT22;23311;48.776;9.162;2023-06-24T09:02:42;30.00;60.40
292;DHT22;23311;48.776;9.162;2023-06-24T09:05:12;31.20;59.00
292;DHT22;23311;48.776;9.162;2023-06-24T09:07:40;32.70;56.50
292;DHT22;23311;48.776;9.162;2023-06-24T09:10:09;33.10;56.00
292;DHT22;23311;48.776;9.162;2023-06-24T09:12:37;33.90;55.50
292;DHT22;23311;48.776;9.162;2023-06-24T09:15:14;34.20;54.20
292;DHT22;23311;48.776;9.162;2023-06-24T09:17:44;34.40;53.90
292;DHT22;23311;48.776;9.162;2023-06-24T09:20:13;34.90;53.10
292;DHT22;23311;48.776;9.162;2023-06-24T09:22:41;34.80;52.30
292;DHT22;23311;48.776;9.162;2023-06-24T09:25:09;33.40;53.90
292;DHT22;23311;48.776;9.162;2023-06-24T09:27:47;33.30;54.00
292;DHT22;23311;48.776;9.162;2023-06-24T09:30:19;33.50;53.80
292;DHT22;23311;48.776;9.162;2023-06-24T09:32:48;33.00;53.80
292;DHT22;23311;48.776;9.162;2023-06-24T09:35:18;33.40;52.90
292;DHT22;23311;48.776;9.162;2023-06-24T09:37:51;33.70;52.90
292;DHT22;23311;48.776;9.162;2023-06-24T09:40:19;34.30;51.90
292;DHT22;23311;48.776;9.162;2023-06-24T09:42:51;33.80;52.50
292;DHT22;23311;48.776;9.162;2023-06-24T09:45:24;33.70;52.80
292;DHT22;23311;48.776;9.162;2023-06-24T09:47:52;33.50;52.80
292;DHT22;23311;48.776;9.162;2023-06-24T09:50:21;33.80;52.30
292;DHT22;23311;48.776;9.162;2023-06-24T09:52:50;34.40;51.90
292;DHT22;23311;48.776;9.162;2023-06-24T09:55:19;35.00;50.80
292;DHT22;23311;48.776;9.162;2023-06-24T09:57:49;34.90;51.20
292;DHT22;23311;48.776;9.162;2023-06-24T10:00:19;34.90;50.90
292;DHT22;23311;48.776;9.162;2023-06-24T10:02:51;34.00;50.70
292;DHT22;23311;48.776;9.162;2023-06-24T10:05:21;33.50;52.00
292;DHT22;23311;48.776;9.162;2023-06-24T10:07:50;33.90;51.10
292;DHT22;23311;48.776;9.162;2023-06-24T10:10:18;34.60;50.70
292;DHT22;23311;48.776;9.162;2023-06-24T10:12:46;35.00;50.30
292;DHT22;23311;48.776;9.162;2023-06-24T10:15:14;35.10;49.90
292;DHT22;23311;48.776;9.162;2023-06-24T10:17:45;34.90;50.20
292;DHT22;23311;48.776;9.162;2023-06-24T10:20:23;35.60;49.80
292;DHT22;23311;48.776;9.162;2023-06-24T10:22:52;35.20;50.00
292;DHT22;23311;48.776;9.162;2023-06-24T10:25:20;34.80;50.60
292;DHT22;23311;48.776;9.162;2023-06-24T10:27:53;35.80;50.20
292;DHT22;23311;48.776;9.162;2023-06-24T10:30:22;35.70;49.60
292;DHT22;23311;48.776;9.162;2023-06-24T10:32:51;35.40;50.10
292;DHT22;23311;48.776;9.162;2023-06-24T10:35:24;35.80;49.40
292;DHT22;23311;48.776;9.162;2023-06-24T10:37:57;35.60;49.70
292;DHT22;23311;48.776;9.162;2023-06-24T10:40:35;35.40;50.20
292;DHT22;23311;48.776;9.162;2023-06-24T10:43:25;35.70;49.90
292;DHT22;23311;48.776;9.162;2023-06-24T10:45:54;35.30;49.30
292;DHT22;23311;48.776;9.162;2023-06-24T10:48:22;34.40;50.40
292;DHT22;23311;48.776;9.162;2023-06-24T10:50:52;34.60;50.50
292;DHT22;23311;48.776;9.162;2023-06-24T10:53:21;34.70;50.20
292;DHT22;23311;48.776;9.162;2023-06-24T10:55:50;35.70;49.60
292;DHT22;23311;48.776;9.162;2023-06-24T10:58:18;35.40;47.50
292;DHT22;23311;48.776;9.162;2023-06-24T11:00:46;35.10;48.10
292;DHT22;23311;48.776;9.162;2023-06-24T11:03:15;34.50;49.20
292;DHT22;23311;48.776;9.162;2023-06-24T11:05:44;33.60;49.80
292;DHT22;23311;48.776;9.162;2023-06-24T11:08:14;33.50;50.10
292;DHT22;23311;48.776;9.162;2023-06-24T11:10:43;34.00;49.60
292;DHT22;23311;48.776;9.162;2023-06-24T11:13:12;34.00;49.40
292;DHT22;23311;48.776;9.162;2023-06-24T11:15:41;34.40;49.30
292;DHT22;23311;48.776;9.162;2023-06-24T11:18:10;34.60;49.20
292;DHT22;23311;48.776;9.162;2023-06-24T11:20:39;35.20;48.10
292;DHT22;23311;48.776;9.162;2023-06-24T11:23:08;35.80;47.10
292;DHT22;23311;48.776;9.162;2023-06-24T11:25:43;35.60;47.40
292;DHT22;23311;48.776;9.162;2023-06-24T11:28:16;34.80;48.60
292;DHT22;23311;48.776;9.162;2023-06-24T11:30:49;35.10;48.10
292;DHT22;23311;48.776;9.162;2023-06-24T11:33:26;34.60;48.30
292;DHT22;23311;48.776;9.162;2023-06-24T11:35:55;35.10;48.00
292;DHT22;23311;48.776;9.162;2023-06-24T11:38:23;35.20;47.10
292;DHT22;23311;48.776;9.162;2023-06-24T11:41:00;34.50;48.20
292;DHT22;23311;48.776;9.162;2023-06-24T11:43:28;34.10;48.60
292;DHT22;23311;48.776;9.162;2023-06-24T11:45:56;34.60;47.90
292;DHT22;23311;48.776;9.162;2023-06-24T11:48:27;34.60;47.70
292;DHT22;23311;48.776;9.162;2023-06-24T11:50:55;34.10;47.80
292;DHT22;23311;48.776;9.162;2023-06-24T11:53:29;33.70;48.50
292;DHT22;23311;48.776;9.162;2023-06-24T11:55:57;33.90;48.30
292;DHT22;23311;48.776;9.162;2023-06-24T11:58:27;31.70;50.80
292;DHT22;23311;48.776;9.162;2023-06-24T12:00:56;31.10;51.90
292;DHT22;23311;48.776;9.162;2023-06-24T12:03:24;32.40;50.70
292;DHT22;23311;48.776;9.162;2023-06-24T12:05:53;31.80;51.40
292;DHT22;23311;48.776;9.162;2023-06-24T12:08:21;32.30;51.10
292;DHT22;23311;48.776;9.162;2023-06-24T12:10:49;33.10;50.00
292;DHT22;23311;48.776;9.162;2023-06-24T12:13:18;33.30;49.70
292;DHT22;23311;48.776;9.162;2023-06-24T12:15:47;33.30;48.90
292;DHT22;23311;48.776;9.162;2023-06-24T12:18:15;32.90;49.60
292;DHT22;23311;48.776;9.162;2023-06-24T12:20:44;33.50;49.10
292;DHT22;23311;48.776;9.162;2023-06-24T12:23:12;33.40;49.10
292;DHT22;23311;48.776;9.162;2023-06-24T12:25:41;33.90;49.10
292;DHT22;23311;48.776;9.162;2023-06-24T12:28:09;34.10;48.70
292;DHT22;23311;48.776;9.162;2023-06-24T12:30:37;34.00;48.20
292;DHT22;23311;48.776;9.162;2023-06-24T12:33:06;33.80;49.00
292;DHT22;23311;48.776;9.162;2023-06-24T12:35:36;33.90;48.90
292;DHT22;23311;48.776;9.162;2023-06-24T12:38:04;33.70;49.30
292;DHT22;23311;48.776;9.162;2023-06-24T12:40:32;34.00;49.20
292;DHT22;23311;48.776;9.162;2023-06-24T12:43:00;34.30;48.90
292;DHT22;23311;48.776;9.162;2023-06-24T12:45:30;34.00;49.20
292;DHT22;23311;48.776;9.162;2023-06-24T12:47:58;34.20;49.30
292;DHT22;23311;48.776;9.162;2023-06-24T12:50:28;34.40;48.80
292;DHT22;23311;48.776;9.162;2023-06-24T12:52:58;33.90;49.10
292;DHT22;23311;48.776;9.162;2023-06-24T12:55:27;33.70;49.70
292;DHT22;23311;48.776;9.162;2023-06-24T12:57:55;32.70;50.70
292;DHT22;23311;48.776;9.162;2023-06-24T13:00:24;32.30;51.50
292;DHT22;23311;48.776;9.162;2023-06-24T13:02:52;32.60;50.90
292;DHT22;23311;48.776;9.162;2023-06-24T13:05:20;32.90;50.50
292;DHT22;23311;48.776;9.162;2023-06-24T13:07:50;32.80;50.40
292;DHT22;23311;48.776;9.162;2023-06-24T13:10:18;33.30;50.50
292;DHT22;23311;48.776;9.162;2023-06-24T13:12:46;33.90;49.70
292;DHT22;23311;48.776;9.162;2023-06-24T13:15:18;33.70;49.40
292;DHT22;23311;48.776;9.162;2023-06-24T13:17:46;33.60;49.70
292;DHT22;23311;48.776;9.162;2023-06-24T13:20:14;34.30;49.00
292;DHT22;23311;48.776;9.162;2023-06-24T13:22:42;34.50;48.50
292;DHT22;23311;48.776;9.162;2023-06-24T13:25:12;34.20;49.00
292;DHT22;23311;48.776;9.162;2023-06-24T13:27:42;33.50;49.80
292;DHT22;23311;48.776;9.162;2023-06-24T13:30:12;32.70;50.80
292;DHT22;23311;48.776;9.162;2023-06-24T13:32:42;33.70;49.80
292;DHT22;23311;48.776;9.162;2023-06-24T13:35:11;34.20;48.50
292;DHT22;23311;48.776;9.162;2023-06-24T13:37:39;34.50;48.10
292;DHT22;23311;48.776;9.162;2023-06-24T13:40:08;33.40;49.60
292;DHT22;23311;48.776;9.162;2023-06-24T13:42:38;33.90;49.20
292;DHT22;23311;48.776;9.162;2023-06-24T13:45:07;33.50;49.70
292;DHT22;23311;48.776;9.162;2023-06-24T13:47:35;33.50;49.90
292;DHT22;23311;48.776;9.162;2023-06-24T13:50:04;33.90;49.70
292;DHT22;23311;48.776;9.162;2023-06-24T13:52:33;34.50;48.70
292;DHT22;23311;48.776;9.162;2023-06-24T13:55:01;34.10;48.50
292;DHT22;23311;48.776;9.162;2023-06-24T13:57:29;33.80;49.10
292;DHT22;23311;48.776;9.162;2023-06-24T13:59:58;33.70;49.30
292;DHT22;23311;48.776;9.162;2023-06-24T14:02:26;33.30;49.40
292;DHT22;23311;48.776;9.162;2023-06-24T14:04:55;34.20;48.70
292;DHT22;23311;48.776;9.162;2023-06-24T14:07:23;33.70;48.70
292;DHT22;23311;48.776;9.162;2023-06-24T14:09:52;32.90;49.60
292;DHT22;23311;48.776;9.162;2023-06-24T14:12:20;32.90;49.60
292;DHT22;23311;48.776;9.162;2023-06-24T14:14:48;32.90;49.90
292;DHT22;23311;48.776;9.162;2023-06-24T14:17:18;33.40;49.40
292;DHT22;23311;48.776;9.162;2023-06-24T14:19:46;33.10;49.60
292;DHT22;23311;48.776;9.162;2023-06-24T14:22:14;33.50;49.70
292;DHT22;23311;48.776;9.162;2023-06-24T14:24:44;33.40;49.90
292;DHT22;23311;48.776;9.162;2023-06-24T14:27:12;33.10;50.50
292;DHT22;23311;48.776;9.162;2023-06-24T14:29:40;33.50;50.30
292;DHT22;23311;48.776;9.162;2023-06-24T14:32:08;33.70;50.00
292;DHT22;23311;48.776;9.162;2023-06-24T14:34:37;34.00;49.30
292;DHT22;23311;48.776;9.162;2023-06-24T14:37:06;34.00;49.20
292;DHT22;23311;48.776;9.162;2023-06-24T14:39:34;34.10;49.30
292;DHT22;23311;48.776;9.162;2023-06-24T14:42:02;33.20;50.30
292;DHT22;23311;48.776;9.162;2023-06-24T14:44:30;33.30;50.30
292;DHT22;23311;48.776;9.162;2023-06-24T14:46:58;32.80;50.70
292;DHT22;23311;48.776;9.162;2023-06-24T14:49:26;33.20;50.80
292;DHT22;23311;48.776;9.162;2023-06-24T14:51:56;33.70;49.70
292;DHT22;23311;48.776;9.162;2023-06-24T14:54:24;34.00;49.40
292;DHT22;23311;48.776;9.162;2023-06-24T14:56:52;33.80;49.60
292;DHT22;23311;48.776;9.162;2023-06-24T14:59:20;31.90;52.10
292;DHT22;23311;48.776;9.162;2023-06-24T15:01:48;33.10;50.80
292;DHT22;23311;48.776;9.162;2023-06-24T15:04:16;34.30;49.30
292;DHT22;23311;48.776;9.162;2023-06-24T15:06:49;34.60;49.10
292;DHT22;23311;48.776;9.162;2023-06-24T15:09:18;34.40;48.80
292;DHT22;23311;48.776;9.162;2023-06-24T15:11:46;34.10;49.20
292;DHT22;23311;48.776;9.162;2023-06-24T15:14:14;34.20;49.10
292;DHT22;23311;48.776;9.162;2023-06-24T15:16:42;34.30;48.60
292;DHT22;23311;48.776;9.162;2023-06-24T15:19:11;34.10;48.90
292;DHT22;23311;48.776;9.162;2023-06-24T15:21:39;34.60;48.50
292;DHT22;23311;48.776;9.162;2023-06-24T15:24:07;34.80;48.60
292;DHT22;23311;48.776;9.162;2023-06-24T15:26:36;34.50;49.10
292;DHT22;23311;48.776;9.162;2023-06-24T15:29:04;33.30;50.00
292;DHT22;23311;48.776;9.162;2023-06-24T15:31:33;33.40;50.30
292;DHT22;23311;48.776;9.162;2023-06-24T15:34:01;33.20;50.40
292;DHT22;23311;48.776;9.162;2023-06-24T15:36:29;32.30;51.20
292;DHT22;23311;48.776;9.162;2023-06-24T15:38:57;32.40;51.30
292;DHT22;23311;48.776;9.162;2023-06-24T15:41:25;33.00;50.20
292;DHT22;23311;48.776;9.162;2023-06-24T15:43:54;32.70;50.20
292;DHT22;23311;48.776;9.162;2023-06-24T15:46:23;32.80;50.20
292;DHT22;23311;48.776;9.162;2023-06-24T15:48:51;33.10;50.20
292;DHT22;23311;48.776;9.162;2023-06-24T15:51:19;33.80;49.50
292;DHT22;23311;48.776;9.162;2023-06-24T15:53:48;33.90;49.20
292;DHT22;23311;48.776;9.162;2023-06-24T15:56:16;34.00;48.90
292;DHT22;23311;48.776;9.162;2023-06-24T15:58:44;33.60;49.80
292;DHT22;23311;48.776;9.162;2023-06-24T16:01:15;33.40;50.20
292;DHT22;23311;48.776;9.162;2023-06-24T16:03:44;33.80;50.10
292;DHT22;23311;48.776;9.162;2023-06-24T16:06:12;33.50;50.00
292;DHT22;23311;48.776;9.162;2023-06-24T16:08:40;33.00;50.90
292;DHT22;23311;48.776;9.162;2023-06-24T16:11:08;33.30;50.60
292;DHT22;23311;48.776;9.162;2023-06-24T16:13:36;33.60;49.90
292;DHT22;23311;48.776;9.162;2023-06-24T16:16:05;32.70;51.10
292;DHT22;23311;48.776;9.162;2023-06-24T16:18:34;32.90;50.80